Time;durP1;ratioP1;P1;durP2;ratioP2;P2;SDS_P1;SDS_P2;PMS_P1;PMS_P2;Temp;Humidity;BMP_temperature;BMP_pressure;BME280_temperature;BME280_humidity;BME280_pressure;Samples;Min_cycle;Max_cycle;Signal;HPM_P1;HPM_P2
2023/06/11 00:01:14;;;;;;;7.83;2.03;;;;;;;13.46;100.00;100931.63;5020405;28;20475;-75
2023/06/11 00:03:40;;;;;;;6.05;1.40;;;;;;;13.41;100.00;100931.31;4999724;28;20036;-75
2023/06/11 00:06:10;;;;;;;7.75;1.83;;;;;;;13.41;100.00;101025.19;5020744;28;20017;-75
2023/06/11 00:08:36;;;;;;;17.58;2.05;;;;;;;13.29;100.00;101012.16;5017391;28;20034;-75
2023/06/11 00:11:01;;;;;;;5.97;1.98;;;;;;;13.39;100.00;101059.38;5018172;28;20542;-75
2023/06/11 00:13:27;;;;;;;8.93;1.40;;;;;;;13.42;100.00;101075.97;5017976;28;20029;-75
2023/06/11 00:15:53;;;;;;;9.82;2.05;;;;;;;13.32;100.00;101074.50;5019623;28;20390;-75
2023/06/11 00:18:18;;;;;;;6.60;2.08;;;;;;;13.37;100.00;101098.94;5029293;28;20410;-75
2023/06/11 00:20:44;;;;;;;8.77;1.80;;;;;;;13.26;100.00;101113.53;5015054;28;20025;-75
2023/06/11 00:23:11;;;;;;;5.00;1.85;;;;;;;13.23;100.00;101135.34;5020940;28;20272;-75
2023/06/11 00:25:36;;;;;;;3.40;1.73;;;;;;;13.29;100.00;101172.22;4998929;28;20022;-75
2023/06/11 00:28:01;;;;;;;11.00;2.80;;;;;;;13.29;100.00;101183.75;5001805;28;20418;-76
2023/06/11 00:30:27;;;;;;;9.47;2.70;;;;;;;13.14;100.00;101217.63;4999697;28;20121;-75
2023/06/11 00:32:53;;;;;;;8.57;2.25;;;;;;;13.17;100.00;101292.34;5018048;28;20441;-75
2023/06/11 00:35:18;;;;;;;6.73;2.03;;;;;;;13.19;100.00;101274.25;5027621;28;20014;-75
2023/06/11 00:37:44;;;;;;;5.05;2.05;;;;;;;13.16;100.00;101295.16;5015385;28;20026;-75
2023/06/11 00:40:09;;;;;;;3.97;1.47;;;;;;;13.15;100.00;101329.19;5031520;28;20063;-75
2023/06/11 00:42:36;;;;;;;4.88;1.52;;;;;;;13.17;100.00;101345.13;5018231;28;20497;-75
2023/06/11 00:45:03;;;;;;;;;;;;;;;13.04;100.00;101365.22;5021351;28;20478;-75
2023/06/11 00:47:29;;;;;;;6.35;2.00;;;;;;;13.02;100.00;101382.47;5016682;28;19977;-75
2023/06/11 00:49:56;;;;;;;5.32;2.15;;;;;;;13.06;100.00;101408.78;4998794;28;20026;-75
2023/06/11 00:52:22;;;;;;;4.85;1.90;;;;;;;12.97;100.00;101409.75;5019180;28;20413;-75
2023/06/11 00:54:47;;;;;;;6.50;1.90;;;;;;;13.00;100.00;101436.22;5014417;28;20026;-75
2023/06/11 00:57:17;;;;;;;7.03;2.67;;;;;;;12.96;100.00;101455.47;5026942;28;20306;-75
2023/06/11 00:59:48;;;;;;;9.20;2.25;;;;;;;13.00;100.00;101468.38;4998714;28;20539;-75
2023/06/11 01:02:44;;;;;;;6.47;2.55;;;;;;;12.99;100.00;101469.38;5013146;28;20101;-75
2023/06/11 01:05:12;;;;;;;5.45;2.03;;;;;;;13.08;100.00;101481.81;5016217;28;20025;-75
2023/06/11 01:07:41;;;;;;;4.43;2.47;;;;;;;13.02;100.00;101487.84;5016466;28;20026;-75
2023/06/11 01:10:08;;;;;;;10.05;3.30;;;;;;;12.99;100.00;101498.84;5019656;28;20490;-75
2023/06/11 01:12:35;;;;;;;8.65;2.83;;;;;;;12.97;100.00;101498.19;4997293;28;20566;-75
2023/06/11 01:15:00;;;;;;;5.93;1.98;;;;;;;12.89;100.00;101500.81;5033493;28;20128;-75
2023/06/11 01:17:40;;;;;;;5.17;2.30;;;;;;;12.97;100.00;101516.97;5000757;28;20061;-75
2023/06/11 01:20:13;;;;;;;5.95;2.05;;;;;;;12.96;100.00;101527.84;5019394;28;20506;-75
2023/06/11 01:23:14;;;;;;;8.68;2.85;;;;;;;12.89;100.00;101535.66;5016140;28;20443;-75
2023/06/11 01:26:02;;;;;;;8.00;2.63;;;;;;;12.94;100.00;101560.16;5019722;28;20032;-75
2023/06/11 01:28:30;;;;;;;7.65;2.58;;;;;;;12.93;100.00;101566.50;5007042;28;20038;-75
2023/06/11 01:30:59;;;;;;;6.28;1.77;;;;;;;12.99;100.00;101562.34;5016397;28;20046;-75
2023/06/11 01:33:26;;;;;;;6.30;2.08;;;;;;;12.89;100.00;101570.50;5016373;28;20033;-75
2023/06/11 01:35:57;;;;;;;6.68;2.83;;;;;;;12.89;100.00;101567.81;5018821;28;20021;-75
2023/06/11 01:38:25;;;;;;;6.13;2.50;;;;;;;12.84;100.00;101578.19;5025360;28;20397;-75
2023/06/11 01:40:55;;;;;;;6.60;2.40;;;;;;;12.78;100.00;101605.59;4998894;28;20022;-75
2023/06/11 01:43:23;;;;;;;6.65;2.88;;;;;;;12.80;100.00;101608.97;5026095;28;20033;-74
2023/06/11 01:45:48;;;;;;;5.95;2.55;;;;;;;12.91;100.00;101616.75;5017311;28;20025;-75
2023/06/11 01:48:14;;;;;;;5.33;2.07;;;;;;;12.94;100.00;101603.03;5011596;28;20049;-75
2023/06/11 01:50:40;;;;;;;12.40;2.45;;;;;;;12.91;100.00;101594.47;4998865;28;20384;-75
2023/06/11 01:53:06;;;;;;;7.22;2.60;;;;;;;12.98;100.00;101593.69;5024100;28;20112;-75
2023/06/11 01:55:31;;;;;;;5.57;2.27;;;;;;;12.95;100.00;101582.44;4996937;28;20026;-75
2023/06/11 01:57:57;;;;;;;6.95;3.08;;;;;;;12.94;100.00;101596.84;5014008;28;20445;-75
2023/06/11 02:00:23;;;;;;;6.37;2.33;;;;;;;12.89;100.00;101605.34;5011387;28;20393;-75
2023/06/11 02:02:48;;;;;;;8.90;2.95;;;;;;;12.88;100.00;101625.13;5015738;28;20072;-75
2023/06/11 02:05:16;;;;;;;5.32;2.88;;;;;;;12.89;100.00;101627.63;5028557;28;20018;-76
2023/06/11 02:07:41;;;;;;;8.75;2.33;;;;;;;12.73;100.00;101622.13;5014488;28;20454;-75
2023/06/11 02:10:10;;;;;;;6.03;2.85;;;;;;;12.65;100.00;101633.63;5012896;28;20029;-75
2023/06/11 02:12:35;;;;;;;6.75;3.60;;;;;;;12.72;100.00;101662.50;4997846;28;20478;-75
2023/06/11 02:15:01;;;;;;;10.27;2.65;;;;;;;12.74;100.00;101676.59;5021232;28;20107;-75
2023/06/11 02:17:26;;;;;;;6.93;2.13;;;;;;;12.74;100.00;101671.22;5017139;28;20037;-75
2023/06/11 02:19:51;;;;;;;7.17;2.30;;;;;;;12.76;100.00;101670.06;4999350;28;20022;-75
2023/06/11 02:22:17;;;;;;;7.27;2.73;;;;;;;12.76;100.00;101658.50;5019806;28;20486;-75
2023/06/11 02:24:42;;;;;;;5.30;3.17;;;;;;;12.78;100.00;101651.16;5000030;28;20033;-75
2023/06/11 02:27:08;;;;;;;6.85;2.50;;;;;;;12.72;100.00;101646.41;4998643;28;20017;-75
2023/06/11 02:29:35;;;;;;;8.55;2.20;;;;;;;12.66;100.00;101646.00;5019525;28;20446;-75
2023/06/11 02:32:01;;;;;;;6.95;2.88;;;;;;;12.62;100.00;101658.06;5020640;28;20026;-75
2023/06/11 02:34:26;;;;;;;8.37;2.83;;;;;;;12.61;100.00;101667.06;5023404;28;20040;-75
2023/06/11 02:36:51;;;;;;;9.60;2.67;;;;;;;12.66;100.00;101663.94;5000690;28;20566;-75
2023/06/11 02:39:17;;;;;;;5.27;2.17;;;;;;;12.71;100.00;101656.28;5024968;28;20413;-75
2023/06/11 02:41:42;;;;;;;9.23;3.73;;;;;;;12.68;100.00;101657.44;5017448;28;20026;-76
2023/06/11 02:44:08;;;;;;;6.90;2.80;;;;;;;12.70;100.00;101651.09;5017707;28;20406;-75
2023/06/11 02:46:34;;;;;;;;;;;;;;;12.65;100.00;101667.63;5034577;23;20129;-87
2023/06/11 02:49:00;;;;;;;;;;;;;;;12.61;100.00;101676.97;5020927;28;20058;-88
2023/06/11 02:51:25;;;;;;;5.53;2.87;;;;;;;12.60;100.00;101670.75;5021970;28;19912;-87
2023/06/11 02:53:51;;;;;;;10.97;3.07;;;;;;;12.62;100.00;101670.63;5015874;28;20056;-88
2023/06/11 02:56:16;;;;;;;7.20;2.70;;;;;;;12.60;100.00;101672.59;4993500;28;20377;-88
2023/06/11 02:58:42;;;;;;;9.63;2.63;;;;;;;12.62;100.00;101673.31;4999751;28;20064;-88
2023/06/11 03:01:07;;;;;;;11.97;3.03;;;;;;;12.65;100.00;101668.47;5015844;28;20017;-88
2023/06/11 03:03:33;;;;;;;15.73;2.70;;;;;;;12.65;100.00;101678.34;4992839;28;20083;-88
2023/06/11 03:05:59;;;;;;;15.98;3.47;;;;;;;12.74;100.00;101681.94;5001668;28;20122;-87
2023/06/11 03:08:25;;;;;;;9.10;2.78;;;;;;;12.68;100.00;101684.22;4990597;28;20468;-87
2023/06/11 03:10:50;;;;;;;13.27;3.80;;;;;;;12.73;100.00;101685.59;4997318;28;20032;-88
2023/06/11 03:13:16;;;;;;;10.85;2.70;;;;;;;12.77;100.00;101693.19;4986470;28;20033;-88
2023/06/11 03:15:44;;;;;;;8.57;3.42;;;;;;;12.77;100.00;101693.19;5011927;28;20029;-88
2023/06/11 03:18:10;;;;;;;11.90;3.83;;;;;;;12.73;100.00;101685.59;4979933;28;20053;-88
2023/06/11 03:20:37;;;;;;;10.63;3.53;;;;;;;12.70;100.00;101697.47;4980160;28;20464;-87
2023/06/11 03:23:02;;;;;;;11.13;2.93;;;;;;;12.81;100.00;101696.41;4979243;28;20112;-88
2023/06/11 03:25:28;;;;;;;8.00;3.15;;;;;;;12.79;100.00;101690.34;4990275;28;20428;-88
2023/06/11 03:27:54;;;;;;;8.18;3.28;;;;;;;12.81;100.00;101688.38;5026314;28;20036;-88
2023/06/11 03:30:19;;;;;;;8.70;2.57;;;;;;;12.72;100.00;101674.06;4997846;28;20072;-87
2023/06/11 03:32:45;;;;;;;9.93;3.37;;;;;;;12.84;100.00;101688.88;4998273;28;20541;-88
2023/06/11 03:35:12;;;;;;;7.03;2.95;;;;;;;12.91;100.00;101677.56;4983266;28;20630;-88
2023/06/11 03:37:37;;;;;;;7.35;3.33;;;;;;;12.95;100.00;101674.41;4998872;28;20064;-88
2023/06/11 03:40:04;;;;;;;;;;;;;;;12.82;100.00;101672.13;4996229;28;20413;-88
2023/06/11 03:42:31;;;;;;;9.02;3.50;;;;;;;12.86;100.00;101678.84;4982406;28;19963;-88
2023/06/11 03:44:56;;;;;;;16.03;3.60;;;;;;;12.87;100.00;101682.38;4980437;28;20411;-88
2023/06/11 03:47:24;;;;;;;7.05;2.72;;;;;;;12.91;100.00;101681.06;4992973;28;20331;-88
2023/06/11 03:49:50;;;;;;;11.93;3.20;;;;;;;12.94;100.00;101671.88;4996026;28;20664;-88
2023/06/11 03:52:16;;;;;;;11.40;2.95;;;;;;;13.12;100.00;101666.50;5012418;28;20403;-87
2023/06/11 03:54:41;;;;;;;8.18;2.88;;;;;;;13.21;100.00;101662.88;4998238;28;20029;-88
2023/06/11 03:57:07;;;;;;;16.70;3.63;;;;;;;13.20;100.00;101651.28;5009913;28;20030;-88
2023/06/11 03:59:32;;;;;;;8.80;2.77;;;;;;;13.25;100.00;101634.72;4998654;28;20025;-88
2023/06/11 04:01:57;;;;;;;11.90;2.70;;;;;;;13.28;100.00;101632.59;5006475;28;20034;-88
2023/06/11 04:04:23;;;;;;;10.87;3.50;;;;;;;13.39;100.00;101639.56;4998232;28;20033;-88
2023/06/11 04:06:48;;;;;;;7.40;2.77;;;;;;;13.48;100.00;101630.53;4998340;28;20036;-88
2023/06/11 04:09:14;;;;;;;8.70;2.97;;;;;;;13.58;100.00;101618.84;5014505;28;20025;-88
2023/06/11 04:11:39;;;;;;;10.10;3.17;;;;;;;13.50;100.00;101614.28;4998040;28;20051;-88
2023/06/11 04:14:05;;;;;;;11.70;3.30;;;;;;;13.66;100.00;101611.66;4987729;28;20026;-88
2023/06/11 04:16:30;;;;;;;8.20;3.10;;;;;;;13.76;100.00;101587.38;5009399;28;20080;-88
2023/06/11 04:18:56;;;;;;;12.23;4.07;;;;;;;13.81;100.00;101577.00;5014273;28;20044;-87
2023/06/11 04:21:22;;;;;;;6.47;2.75;;;;;;;13.75;100.00;101563.41;4993233;28;20568;-88
2023/06/11 04:23:47;;;;;;;10.63;2.87;;;;;;;13.65;100.00;101552.78;4996790;28;20124;-88
2023/06/11 04:26:15;;;;;;;5.10;2.67;;;;;;;13.72;100.00;101565.41;4988981;28;20039;-88
2023/06/11 04:28:44;;;;;;;8.20;2.70;;;;;;;13.87;100.00;101579.03;5014100;28;20036;-88
2023/06/11 04:31:11;;;;;;;9.32;2.60;;;;;;;13.96;100.00;101557.59;4996161;28;20032;-88
2023/06/11 04:33:38;;;;;;;7.57;2.50;;;;;;;14.08;100.00;101549.03;5010488;28;20025;-88
2023/06/11 04:36:09;;;;;;;8.32;2.90;;;;;;;14.25;100.00;101541.81;4994774;28;20022;-88
2023/06/11 04:38:37;;;;;;;6.28;2.80;;;;;;;14.33;100.00;101504.25;4978416;28;20037;-88
2023/06/11 04:41:10;;;;;;;14.52;3.10;;;;;;;14.57;100.00;101478.38;4988903;28;20403;-88
2023/06/11 04:43:36;;;;;;;9.48;2.80;;;;;;;14.51;100.00;101457.53;4998250;28;20033;-88
2023/06/11 04:46:03;;;;;;;7.22;2.67;;;;;;;14.54;100.00;101446.50;4994043;28;20476;-88
2023/06/11 04:48:34;;;;;;;12.70;2.88;;;;;;;14.67;100.00;101446.78;5001057;28;20229;-88
2023/06/11 04:51:01;;;;;;;6.35;2.35;;;;;;;14.80;100.00;101440.00;4987352;28;20423;-87
2023/06/11 04:53:29;;;;;;;7.80;2.95;;;;;;;14.62;100.00;101413.38;4991655;28;20029;-87
2023/06/11 04:55:58;;;;;;;6.75;2.63;;;;;;;14.76;100.00;101418.03;4978312;28;20492;-88
2023/06/11 04:58:25;;;;;;;10.40;3.58;;;;;;;14.67;100.00;101395.72;5007165;28;20024;-87
2023/06/11 05:00:52;;;;;;;;;;;;;;;14.65;100.00;101397.72;4995263;28;20033;-89
2023/06/11 05:03:19;;;;;;;13.48;3.30;;;;;;;14.84;100.00;101398.34;4993676;28;19910;-88
2023/06/11 05:05:49;;;;;;;12.80;2.80;;;;;;;15.05;100.00;101373.53;5005368;28;20056;-88
2023/06/11 05:08:28;;;;;;;9.93;2.67;;;;;;;15.19;100.00;101359.31;4997026;28;20075;-88
2023/06/11 05:10:57;;;;;;;7.35;3.08;;;;;;;15.47;100.00;101350.72;4994380;28;20145;-88
2023/06/11 05:13:26;;;;;;;9.77;3.35;;;;;;;15.48;100.00;101293.22;4997035;28;20022;-88
2023/06/11 05:15:58;;;;;;;9.05;4.20;;;;;;;15.73;100.00;101283.94;4994171;28;20037;-88
2023/06/11 05:18:25;;;;;;;6.55;2.78;;;;;;;15.81;100.00;101251.53;4995028;28;20041;-89
2023/06/11 05:20:51;;;;;;;6.53;2.60;;;;;;;15.71;100.00;101175.59;5005831;28;20026;-87
2023/06/11 05:23:18;;;;;;;8.20;2.83;;;;;;;15.80;100.00;101185.25;4993539;28;20071;-88
2023/06/11 05:25:47;;;;;;;5.97;2.65;;;;;;;15.69;100.00;101144.47;4990497;28;20021;-87
2023/06/11 05:28:15;;;;;;;5.47;2.50;;;;;;;15.97;100.00;101169.75;4992909;28;20052;-88
2023/06/11 05:30:43;;;;;;;7.10;3.35;;;;;;;16.16;100.00;101105.53;5006438;28;20109;-86
2023/06/11 05:33:10;;;;;;;8.93;3.20;;;;;;;16.45;100.00;101075.75;5003173;28;20619;-88
2023/06/11 05:35:36;;;;;;;;;;;;;;;16.87;100.00;101065.16;4982611;28;20700;-89
2023/06/11 05:38:06;;;;;;;11.23;2.75;;;;;;;17.33;100.00;101004.44;5010877;28;19963;-88
2023/06/11 05:40:32;;;;;;;8.77;2.97;;;;;;;17.80;100.00;100976.53;4997969;28;20776;-87
2023/06/11 05:42:58;;;;;;;5.40;2.38;;;;;;;18.16;100.00;100751.13;4994389;28;20036;-88
2023/06/11 05:45:25;;;;;;;5.38;2.85;;;;;;;19.26;100.00;100769.09;5012328;28;20033;-88
2023/06/11 05:47:50;;;;;;;6.38;2.50;;;;;;;19.37;100.00;100641.19;4992614;28;20113;-89
2023/06/11 05:50:16;;;;;;;6.85;2.53;;;;;;;19.75;99.80;100448.69;4996558;28;20466;-88
2023/06/11 05:52:44;;;;;;;12.07;2.80;;;;;;;20.57;96.75;100529.41;5001909;28;20033;-88
2023/06/11 05:55:10;;;;;;;6.00;2.22;;;;;;;19.57;95.68;100419.78;4999988;28;20026;-88
2023/06/11 05:57:36;;;;;;;8.82;1.85;;;;;;;20.22;94.35;100557.22;4984867;28;20018;-88
2023/06/11 06:00:03;;;;;;;7.47;2.58;;;;;;;19.69;92.69;100430.69;4994575;28;20094;-88
2023/06/11 06:02:30;;;;;;;3.78;2.40;;;;;;;19.96;90.15;100373.38;5000137;28;20026;-88
2023/06/11 06:04:56;;;;;;;5.13;2.50;;;;;;;19.67;91.54;100530.25;5003133;28;20108;-87
2023/06/11 06:07:22;;;;;;;5.80;2.25;;;;;;;19.97;88.94;100438.19;4981399;28;20021;-88
2023/06/11 06:09:50;;;;;;;7.65;2.55;;;;;;;19.84;90.19;100581.94;4996021;28;20069;-88
2023/06/11 06:12:16;;;;;;;6.73;2.87;;;;;;;20.44;86.34;100430.13;4987879;28;20100;-88
2023/06/11 06:14:41;;;;;;;8.52;2.67;;;;;;;20.96;83.68;100377.03;4989826;28;20044;-87
2023/06/11 06:17:07;;;;;;;5.20;2.23;;;;;;;20.96;83.58;100459.25;5029353;28;20395;-88
2023/06/11 06:19:36;;;;;;;5.22;2.40;;;;;;;20.47;82.63;100330.38;5012858;28;20029;-87
2023/06/11 06:22:01;;;;;;;4.00;2.37;;;;;;;21.36;80.70;100428.56;4991242;28;20033;-88
2023/06/11 06:24:28;;;;;;;10.07;2.75;;;;;;;20.87;78.95;100183.94;4999752;28;20029;-88
2023/06/11 06:26:56;;;;;;;7.37;2.73;;;;;;;21.13;78.95;100301.06;4993747;28;20431;-88
2023/06/11 06:29:24;;;;;;;6.78;2.65;;;;;;;21.48;76.45;100233.84;4997119;28;20111;-88
2023/06/11 06:31:50;;;;;;;9.13;2.47;;;;;;;21.20;76.94;100263.75;4995509;28;20049;-87
2023/06/11 06:34:15;;;;;;;6.40;2.40;;;;;;;22.04;75.60;100380.63;5008187;28;20029;-88
2023/06/11 06:36:41;;;;;;;9.57;1.98;;;;;;;21.23;74.50;100111.25;5007541;28;20033;-87
2023/06/11 06:39:07;;;;;;;7.40;2.30;;;;;;;20.61;75.88;100202.44;5008768;28;20025;-88
2023/06/11 06:41:33;;;;;;;6.53;2.78;;;;;;;20.74;77.40;100444.63;5000283;28;20707;-87
2023/06/11 06:44:06;;;;;;;5.53;2.25;;;;;;;21.61;75.47;100468.19;4989717;28;20523;-88
2023/06/11 06:46:31;;;;;;;6.00;2.40;;;;;;;21.25;75.20;100388.72;5003677;28;20087;-88
2023/06/11 06:48:56;;;;;;;6.93;2.67;;;;;;;21.48;74.25;100369.63;4999900;28;20487;-87
2023/06/11 06:51:22;;;;;;;10.20;2.30;;;;;;;21.46;73.87;100374.47;4996561;28;20108;-87
2023/06/11 06:53:50;;;;;;;9.07;2.38;;;;;;;21.23;73.44;100314.81;4991787;28;20021;-88
2023/06/11 06:56:17;;;;;;;3.97;2.33;;;;;;;21.18;73.47;100279.44;5016606;28;20143;-87
2023/06/11 06:58:43;;;;;;;7.15;2.15;;;;;;;21.18;74.21;100413.28;4999955;28;20017;-85
2023/06/11 07:01:09;;;;;;;3.92;2.65;;;;;;;21.62;73.12;100375.59;5016446;28;20036;-87
2023/06/11 07:03:35;;;;;;;7.80;2.90;;;;;;;21.36;72.72;100314.53;4993263;28;20018;-87
2023/06/11 07:06:01;;;;;;;;;;;;;;;21.03;71.45;100052.06;5013735;28;20559;-88
2023/06/11 07:08:27;;;;;;;9.32;2.35;;;;;;;21.20;71.43;100150.56;5000589;28;19909;-87
2023/06/11 07:10:54;;;;;;;5.60;2.40;;;;;;;20.50;73.67;100281.09;5016693;28;20033;-87
2023/06/11 07:13:41;;;;;;;5.38;2.50;;;;;;;20.84;72.89;100279.38;5003772;28;20108;-87
2023/06/11 07:16:08;;;;;;;8.95;2.50;;;;;;;21.29;72.41;100384.47;5000428;28;20080;-87
2023/06/11 07:18:37;;;;;;;9.65;2.72;;;;;;;20.52;71.63;100092.69;4993390;28;20018;-88
2023/06/11 07:21:02;;;;;;;7.82;2.40;;;;;;;21.29;73.56;100577.22;5013660;28;20131;-87
2023/06/11 07:23:27;;;;;;;9.77;2.93;;;;;;;21.27;71.75;100318.72;5034745;28;20028;-87
2023/06/11 07:25:53;;;;;;;10.43;3.45;;;;;;;21.02;71.98;100262.06;5018124;28;20025;-88
2023/06/11 07:28:19;;;;;;;13.15;2.55;;;;;;;21.84;72.08;100524.31;4999990;28;20182;-87
2023/06/11 07:30:45;;;;;;;6.63;2.25;;;;;;;20.93;70.72;100153.13;5006450;28;20643;-87
2023/06/11 07:33:10;;;;;;;11.50;2.93;;;;;;;21.34;71.85;100436.13;4980373;28;20049;-87
2023/06/11 07:35:36;;;;;;;7.03;2.25;;;;;;;21.43;70.84;100369.53;5023041;28;20036;-87
2023/06/11 07:38:02;;;;;;;4.13;1.95;;;;;;;22.41;69.07;100417.41;4999173;28;20041;-87
2023/06/11 07:40:27;;;;;;;7.38;2.63;;;;;;;21.86;68.51;100201.53;5015459;28;20030;-87
2023/06/11 07:42:53;;;;;;;6.90;2.43;;;;;;;22.27;67.54;100243.72;5013724;28;20388;-87
2023/06/11 07:45:18;;;;;;;6.65;2.35;;;;;;;22.24;67.29;100219.75;4987648;28;20372;-87
2023/06/11 07:47:44;;;;;;;11.73;1.80;;;;;;;22.51;65.97;100137.38;5008338;28;20034;-87
2023/06/11 07:50:10;;;;;;;8.70;2.28;;;;;;;22.68;65.94;100218.91;5010110;28;20034;-87
2023/06/11 07:52:36;;;;;;;6.10;2.10;;;;;;;22.48;65.85;100192.31;4982909;28;20520;-88
2023/06/11 07:55:10;;;;;;;6.20;2.35;;;;;;;21.54;67.15;100060.94;4992202;28;20025;-87
2023/06/11 07:57:35;;;;;;;4.15;2.33;;;;;;;22.44;66.44;100298.06;4998185;28;20427;-87
2023/06/11 08:00:01;;;;;;;8.77;3.80;;;;;;;22.78;63.51;100074.81;4992585;28;20045;-88
2023/06/11 08:02:27;;;;;;;6.30;2.53;;;;;;;22.45;64.31;100095.72;5003549;28;20287;-87
2023/06/11 08:04:53;;;;;;;6.82;2.60;;;;;;;22.98;64.74;100275.56;4991925;28;20018;-87
2023/06/11 08:07:18;;;;;;;5.43;2.50;;;;;;;23.74;62.87;100241.94;5009981;28;20036;-87
2023/06/11 08:09:43;;;;;;;6.10;2.40;;;;;;;23.35;61.26;99860.88;5002921;28;20055;-87
2023/06/11 08:12:11;;;;;;;4.90;2.13;;;;;;;23.67;62.83;100247.63;5011095;28;20295;-87
2023/06/11 08:14:36;;;;;;;4.95;2.55;;;;;;;22.99;62.52;99996.03;4979279;28;20026;-88
2023/06/11 08:17:03;;;;;;;3.40;1.90;;;;;;;22.18;62.18;99742.28;4994790;28;20041;-87
2023/06/11 08:19:28;;;;;;;4.90;1.83;;;;;;;23.48;60.92;100037.41;4979230;28;20018;-87
2023/06/11 08:21:54;;;;;;;10.07;3.25;;;;;;;23.93;60.35;100093.25;4995616;28;20029;-87
2023/06/11 08:24:21;;;;;;;5.63;2.00;;;;;;;24.04;60.21;100115.09;4992569;28;20083;-87
2023/06/11 08:26:47;;;;;;;5.70;2.03;;;;;;;23.91;60.37;100127.31;5012162;28;20657;-86
2023/06/11 08:29:12;;;;;;;9.63;2.78;;;;;;;22.75;60.48;99774.09;5014013;28;20619;-87
2023/06/11 08:31:38;;;;;;;6.85;2.10;;;;;;;22.40;60.82;99761.16;5009099;28;20033;-87
2023/06/11 08:34:03;;;;;;;6.37;2.57;;;;;;;22.36;61.86;99933.28;4997505;28;20032;-88
2023/06/11 08:36:28;;;;;;;5.63;2.30;;;;;;;23.63;60.55;100183.00;5001712;28;20113;-87
2023/06/11 08:38:54;;;;;;;5.10;2.17;;;;;;;23.48;59.63;100003.91;4995062;28;20119;-86
2023/06/11 08:41:19;;;;;;;5.37;2.60;;;;;;;22.67;59.97;99768.38;5007943;28;20691;-86
2023/06/11 08:43:45;;;;;;;9.77;1.88;;;;;;;23.31;58.74;99846.16;5023713;28;20137;-86
2023/06/11 08:46:14;;;;;;;4.20;2.10;;;;;;;23.22;56.63;99516.41;4988378;28;20037;-86
2023/06/11 08:48:42;;;;;;;6.30;2.08;;;;;;;23.46;55.79;99546.59;4989138;28;20025;-86
2023/06/11 08:51:12;;;;;;;3.95;2.78;;;;;;;23.38;55.80;99583.38;4993383;28;20635;-87
2023/06/11 08:53:38;;;;;;;4.57;2.03;;;;;;;24.31;54.67;99804.78;4996084;28;20029;-87
2023/06/11 08:56:06;;;;;;;3.95;1.83;;;;;;;23.87;53.30;99450.28;5012371;28;20029;-87
2023/06/11 08:58:33;;;;;;;5.32;2.20;;;;;;;24.72;53.03;99739.16;5009659;28;20025;-88
2023/06/11 09:01:07;;;;;;;6.07;2.42;;;;;;;24.99;51.73;99594.06;4995636;28;20037;-87
2023/06/11 09:03:32;;;;;;;3.78;2.15;;;;;;;24.37;49.97;99154.53;4983391;28;20028;-88
2023/06/11 09:05:59;;;;;;;6.07;2.20;;;;;;;24.37;47.80;98826.47;4997700;28;20526;-88
2023/06/11 09:08:24;;;;;;;4.85;2.78;;;;;;;24.77;47.42;99045.13;5010213;28;20125;-87
2023/06/11 09:10:50;;;;;;;4.83;2.07;;;;;;;24.93;47.44;99133.03;5009497;28;20097;-86
2023/06/11 09:13:24;;;;;;;4.88;2.08;;;;;;;25.23;47.31;99186.41;4995916;28;20045;-87
2023/06/11 09:15:52;;;;;;;5.07;2.53;;;;;;;24.67;46.84;98878.88;5011444;28;20018;-87
2023/06/11 09:18:22;;;;;;;9.90;2.58;;;;;;;24.80;47.54;99140.06;4996616;28;20029;-87
2023/06/11 09:20:50;;;;;;;6.30;2.20;;;;;;;24.47;47.53;99077.25;4979330;28;20029;-87
2023/06/11 09:23:30;;;;;;;6.47;2.00;;;;;;;24.98;46.49;99109.22;5010701;28;20124;-88
2023/06/11 09:25:56;;;;;;;5.70;2.20;;;;;;;24.57;45.20;98766.09;4988310;28;20030;-87
2023/06/11 09:28:33;;;;;;;3.33;1.90;;;;;;;24.19;45.35;98601.88;4988797;28;20040;-87
2023/06/11 09:31:01;;;;;;;6.30;2.20;;;;;;;25.12;44.31;98942.69;4996021;28;20058;-87
2023/06/11 09:33:28;;;;;;;13.73;2.13;;;;;;;25.77;43.27;98916.28;4983809;28;20398;-87
2023/06/11 09:35:53;;;;;;;4.25;2.42;;;;;;;26.20;43.08;99034.28;5013208;28;20117;-88
2023/06/11 09:38:20;;;;;;;7.18;2.05;;;;;;;25.24;41.66;98435.16;4994021;28;20112;-87
2023/06/11 09:40:46;;;;;;;4.10;1.95;;;;;;;25.79;41.83;98718.06;5002407;28;20033;-88
2023/06/11 09:43:12;;;;;;;;;;;;;;;26.06;41.77;98831.97;5013774;28;20044;-88
2023/06/11 09:45:38;;;;;;;7.07;2.63;;;;;;;25.14;41.68;98451.75;5008985;28;19914;-87
2023/06/11 09:48:04;;;;;;;4.80;2.00;;;;;;;25.24;42.63;98771.00;4995263;28;20523;-87
2023/06/11 09:50:32;;;;;;;5.82;2.33;;;;;;;25.46;41.52;98646.50;5018923;28;20551;-87
2023/06/11 09:53:02;;;;;;;3.28;2.40;;;;;;;26.46;41.20;98987.97;5012795;28;20025;-89
2023/06/11 09:55:31;;;;;;;5.93;2.35;;;;;;;27.23;39.04;98879.25;5017513;28;20033;-88
2023/06/11 09:57:57;;;;;;;5.85;2.05;;;;;;;26.08;40.52;98670.31;4999679;28;20109;-87
2023/06/11 10:00:23;;;;;;;;;;;;;;;26.46;40.81;98949.69;5000748;28;20029;-87
2023/06/11 10:02:48;;;;;;;5.43;2.22;;;;;;;26.72;39.49;98793.06;5000616;28;20326;-88
2023/06/11 10:05:14;;;;;;;5.05;1.77;;;;;;;25.46;40.46;98403.41;5017455;28;20029;-87
2023/06/11 10:07:45;;;;;;;4.45;2.40;;;;;;;25.86;40.60;98739.50;5001645;28;20056;-87
2023/06/11 10:10:13;;;;;;;8.65;2.40;;;;;;;25.68;41.60;98881.50;5014291;28;20040;-87
2023/06/11 10:12:39;;;;;;;3.47;2.30;;;;;;;25.55;42.27;98908.84;4982207;28;20013;-86
2023/06/11 10:15:09;;;;;;;4.18;2.13;;;;;;;25.19;42.76;98890.44;5005367;28;20057;-87
2023/06/11 10:17:35;;;;;;;3.33;1.90;;;;;;;24.91;43.60;98987.88;5014700;28;20025;-87
2023/06/11 10:20:01;;;;;;;3.38;1.85;;;;;;;26.11;43.35;99386.97;5035225;28;20449;-88
2023/06/11 10:22:34;;;;;;;6.30;2.83;;;;;;;25.23;42.88;98982.38;5016335;28;20399;-88
2023/06/11 10:25:01;;;;;;;7.53;2.17;;;;;;;24.52;44.85;99049.09;5026289;28;20042;-86
2023/06/11 10:27:35;;;;;;;5.03;1.98;;;;;;;25.70;41.93;99004.94;5026681;28;20021;-87
2023/06/11 10:30:00;;;;;;;2.92;2.30;;;;;;;25.87;41.81;99072.69;5013170;28;20073;-87
2023/06/11 10:32:25;;;;;;;6.18;2.30;;;;;;;26.04;41.80;99126.75;5015155;28;20275;-88
2023/06/11 10:35:04;;;;;;;5.18;1.85;;;;;;;26.64;41.92;99339.25;5028212;28;20037;-88
2023/06/11 10:37:42;;;;;;;4.88;2.65;;;;;;;26.78;41.29;99201.56;4999684;28;20034;-88
2023/06/11 10:40:08;;;;;;;4.50;2.30;;;;;;;27.81;40.02;99342.53;5000636;28;20029;-88
2023/06/11 10:42:38;;;;;;;5.28;2.00;;;;;;;26.87;40.71;99091.03;5017020;28;20032;-88
2023/06/11 10:45:09;;;;;;;6.35;2.33;;;;;;;26.57;42.62;99398.25;5027212;28;20068;-88
2023/06/11 10:47:51;;;;;;;6.28;2.30;;;;;;;26.62;41.80;99201.94;4995229;28;20030;-87
2023/06/11 10:50:24;;;;;;;3.78;2.30;;;;;;;27.50;40.48;99355.03;5004752;28;20026;-87
2023/06/11 10:52:51;;;;;;;8.73;2.25;;;;;;;26.06;40.92;98711.66;5013203;28;20167;-87
2023/06/11 10:55:20;;;;;;;5.30;2.47;;;;;;;26.57;41.75;99243.06;4995884;28;20053;-87
2023/06/11 10:57:46;;;;;;;3.42;2.20;;;;;;;24.58;42.21;98344.13;4999627;28;20022;-87
2023/06/11 11:00:14;;;;;;;4.40;2.40;;;;;;;25.66;42.12;98943.84;5003469;28;20404;-87
2023/06/11 11:02:40;;;;;;;4.60;2.17;;;;;;;27.08;42.60;99638.31;4979878;28;20038;-87
2023/06/11 11:05:08;;;;;;;5.70;2.08;;;;;;;27.52;41.61;99583.03;4984994;28;20017;-88
2023/06/11 11:07:34;;;;;;;4.15;2.33;;;;;;;26.36;42.20;99168.75;4983623;28;20042;-87
2023/06/11 11:10:00;;;;;;;4.60;2.20;;;;;;;26.81;41.67;99267.50;5009664;28;20033;-87
2023/06/11 11:12:26;;;;;;;;;;;;;;;27.48;41.24;99397.56;5005977;28;20040;-88
2023/06/11 11:14:54;;;;;;;7.77;3.27;;;;;;;28.10;41.34;99750.91;5012375;28;19909;-87
2023/06/11 11:17:19;;;;;;;7.15;2.53;;;;;;;26.65;42.82;99323.66;5013750;28;20774;-88
2023/06/11 11:19:46;;;;;;;5.73;1.93;;;;;;;26.95;40.83;99131.38;4992327;28;20156;-88
2023/06/11 11:22:12;;;;;;;7.43;2.05;;;;;;;25.94;43.39;99113.28;4995601;28;20379;-87
2023/06/11 11:24:38;;;;;;;6.00;1.98;;;;;;;26.52;43.02;99358.88;4991780;28;20056;-87